Time;durP1;ratioP1;P1;durP2;ratioP2;P2;SDS_P1;SDS_P2;PMS_P1;PMS_P2;Temp;Humidity;BMP_temperature;BMP_pressure;BME280_temperature;BME280_humidity;BME280_pressure;Samples;Min_cycle;Max_cycle;Signal;HPM_P1;HPM_P2
2022/05/19 00:01:06;;;;;;;1.30;1.20;;;14.60;78.00;;;;;;7379795;19;20340;-78
2022/05/19 00:03:33;;;;;;;1.30;1.20;;;14.50;79.20;;;;;;7382452;19;20339;-78
2022/05/19 00:05:59;;;;;;;1.92;1.30;;;14.50;79.10;;;;;;7380228;19;20385;-81
2022/05/19 00:08:24;;;;;;;1.30;1.20;;;14.50;79.80;;;;;;7383046;19;20317;-80
2022/05/19 00:10:51;;;;;;;1.87;1.60;;;14.40;81.60;;;;;;7383162;19;20849;-80
2022/05/19 00:13:16;;;;;;;1.33;1.23;;;14.30;82.80;;;;;;7384528;19;20345;-79
2022/05/19 00:15:42;;;;;;;2.50;1.30;;;14.20;83.20;;;;;;7360959;19;20287;-77
2022/05/19 00:18:07;;;;;;;1.40;1.30;;;14.10;82.80;;;;;;7384419;19;20646;-77
2022/05/19 00:20:33;;;;;;;1.50;1.40;;;14.20;83.60;;;;;;7385067;19;20387;-77
2022/05/19 00:22:59;;;;;;;1.40;1.30;;;14.00;84.40;;;;;;7382353;19;20373;-77
2022/05/19 00:25:24;;;;;;;3.30;1.20;;;14.00;84.60;;;;;;7382089;19;20328;-78
2022/05/19 00:27:50;;;;;;;1.30;1.20;;;14.00;86.00;;;;;;7381951;19;20872;-77
2022/05/19 00:30:15;;;;;;;1.30;1.20;;;13.90;87.50;;;;;;7382190;19;20341;-78
2022/05/19 00:32:41;;;;;;;1.43;1.33;;;13.80;87.00;;;;;;7381663;19;20458;-78
2022/05/19 00:35:07;;;;;;;1.35;1.25;;;13.80;88.00;;;;;;7378189;19;20337;-77
2022/05/19 00:37:32;;;;;;;1.42;1.13;;;13.70;88.80;;;;;;7377003;19;20329;-78
2022/05/19 00:39:58;;;;;;;1.23;1.13;;;13.70;89.40;;;;;;7380811;19;20769;-77
2022/05/19 00:42:43;;;;;;;1.50;1.40;;;13.70;90.10;;;;;;7379014;19;20404;-78
2022/05/19 00:45:13;;;;;;;1.45;1.35;;;13.60;90.80;;;;;;7381796;19;20344;-78
2022/05/19 00:47:57;;;;;;;1.50;1.40;;;13.50;91.00;;;;;;7381659;19;20347;-79
2022/05/19 00:50:26;;;;;;;1.40;1.30;;;13.50;91.80;;;;;;7380825;19;20347;-78
2022/05/19 00:52:59;;;;;;;1.50;1.40;;;13.40;92.10;;;;;;7383587;19;20390;-77
2022/05/19 00:55:29;;;;;;;1.40;1.30;;;13.30;92.10;;;;;;7387093;19;20336;-80
2022/05/19 00:58:02;;;;;;;1.50;1.40;;;13.30;92.80;;;;;;7387571;19;20309;-78
2022/05/19 01:00:27;;;;;;;1.50;1.40;;;13.20;93.50;;;;;;7386361;19;20319;-79
2022/05/19 01:02:56;;;;;;;1.10;1.10;;;13.20;93.50;;;;;;7383895;19;21001;-78
2022/05/19 01:05:34;;;;;;;1.70;1.33;;;13.10;94.10;;;;;;7385215;19;20731;-78
2022/05/19 01:08:19;;;;;;;1.50;1.40;;;13.10;94.40;;;;;;7385150;19;20408;-80
2022/05/19 01:10:44;;;;;;;1.15;1.15;;;13.00;94.60;;;;;;7387212;19;20345;-79
2022/05/19 01:13:11;;;;;;;1.30;1.20;;;13.00;95.00;;;;;;7385209;19;20365;-80
2022/05/19 01:15:39;;;;;;;1.30;1.20;;;12.90;95.40;;;;;;7382748;19;20413;-78
2022/05/19 01:18:05;;;;;;;2.75;1.58;;;12.90;96.40;;;;;;7385569;19;20367;-79
2022/05/19 01:20:30;;;;;;;1.53;1.37;;;12.90;96.30;;;;;;7384394;19;20679;-78
2022/05/19 01:23:04;;;;;;;1.35;1.20;;;12.80;97.20;;;;;;7387776;19;20313;-80
2022/05/19 01:25:49;;;;;;;1.93;1.70;;;12.80;97.70;;;;;;7385747;19;20904;-78
2022/05/19 01:28:15;;;;;;;1.83;1.73;;;12.80;97.70;;;;;;7282091;19;2019917;-79
2022/05/19 01:30:40;;;;;;;2.20;1.73;;;12.70;98.70;;;;;;7386089;19;20348;-78
2022/05/19 01:33:06;;;;;;;1.77;1.65;;;12.70;99.90;;;;;;7384092;19;20384;-78
2022/05/19 01:35:33;;;;;;;1.50;1.40;;;12.60;99.90;;;;;;7383017;19;20300;-79
2022/05/19 01:38:03;;;;;;;2.50;1.85;;;12.60;99.90;;;;;;7385682;19;20339;-78
2022/05/19 01:40:59;;;;;;;1.73;1.63;;;12.50;99.90;;;;;;7384593;19;20372;-78
2022/05/19 01:43:31;;;;;;;2.80;1.52;;;12.50;99.90;;;;;;7384018;19;20349;-78
2022/05/19 01:46:33;;;;;;;2.00;1.58;;;12.40;99.90;;;;;;7383562;19;20878;-77
2022/05/19 01:49:05;;;;;;;1.77;1.67;;;12.40;99.90;;;;;;7282989;19;2004519;-79
2022/05/19 01:51:50;;;;;;;2.08;1.70;;;12.40;99.90;;;;;;7385297;19;20341;-83
2022/05/19 01:54:27;;;;;;;1.70;1.60;;;12.30;99.90;;;;;;7384258;19;20335;-78
2022/05/19 01:57:15;;;;;;;1.52;1.42;;;12.30;99.90;;;;;;7382622;19;20710;-78
2022/05/19 02:00:00;;;;;;;1.40;1.30;;;12.30;99.90;;;;;;7385700;19;20340;-78
2022/05/19 02:02:35;;;;;;;1.40;1.30;;;12.20;99.90;;;;;;7281983;19;2004607;-79
2022/05/19 02:05:08;;;;;;;1.30;1.20;;;12.20;99.90;;;;;;7280825;19;2004309;-79
2022/05/19 02:07:34;;;;;;;1.50;1.30;;;12.20;99.90;;;;;;7382897;19;20358;-79
2022/05/19 02:10:07;;;;;;;1.60;1.50;;;12.10;99.90;;;;;;7385641;19;20312;-80
2022/05/19 02:12:33;;;;;;;1.70;1.60;;;12.00;99.90;;;;;;7384425;19;20337;-79
2022/05/19 02:15:18;;;;;;;1.30;1.20;;;12.00;99.90;;;;;;7382496;19;20345;-82
2022/05/19 02:17:46;;;;;;;2.20;1.40;;;12.00;99.90;;;;;;7283018;19;2004363;-80
2022/05/19 02:20:13;;;;;;;2.05;1.65;;;12.00;99.90;;;;;;7386257;19;20352;-79
2022/05/19 02:22:43;;;;;;;2.53;1.60;;;11.90;99.90;;;;;;7386443;19;20337;-83
2022/05/19 02:25:18;;;;;;;1.50;1.40;;;11.90;99.90;;;;;;7382341;19;20344;-78
2022/05/19 02:27:59;;;;;;;8.43;5.30;;;11.90;99.90;;;;;;7382503;19;21095;-80
2022/05/19 02:30:29;;;;;;;1.92;1.80;;;11.80;99.90;;;;;;7385412;19;20714;-79
2022/05/19 02:32:55;;;;;;;1.50;1.40;;;11.80;99.90;;;;;;7383780;19;20353;-83
2022/05/19 02:35:21;;;;;;;1.50;1.40;;;11.80;99.90;;;;;;7386556;19;20321;-80
2022/05/19 02:37:46;;;;;;;1.40;1.30;;;11.70;99.90;;;;;;7387495;19;20329;-80
2022/05/19 02:40:14;;;;;;;1.43;1.33;;;11.70;99.90;;;;;;7389864;19;20337;-79
2022/05/19 02:42:40;;;;;;;1.45;1.30;;;11.70;99.90;;;;;;7384402;19;20341;-85
2022/05/19 02:45:06;;;;;;;3.03;1.50;;;11.70;99.90;;;;;;7382345;19;20920;-80
2022/05/19 02:47:31;;;;;;;2.63;1.90;;;11.60;99.90;;;;;;7383788;19;20359;-77
2022/05/19 02:49:57;;;;;;;2.40;1.80;;;11.60;99.90;;;;;;7383823;19;20322;-79
2022/05/19 02:52:22;;;;;;;2.47;1.90;;;11.50;99.90;;;;;;7382469;19;20720;-85
2022/05/19 02:54:48;;;;;;;1.70;1.53;;;11.50;99.90;;;;;;7383204;19;20317;-80
2022/05/19 02:57:13;;;;;;;1.73;1.60;;;11.50;99.90;;;;;;7381117;19;20336;-78
2022/05/19 02:59:41;;;;;;;1.80;1.70;;;11.50;99.90;;;;;;7388168;19;20327;-86
2022/05/19 03:02:07;;;;;;;1.52;1.42;;;11.50;99.90;;;;;;7387152;19;20875;-80
2022/05/19 03:04:32;;;;;;;1.63;1.53;;;11.40;99.90;;;;;;7396603;19;20348;-83
2022/05/19 03:06:58;;;;;;;2.45;1.55;;;11.30;99.90;;;;;;7385598;19;20320;-84
2022/05/19 03:09:24;;;;;;;3.00;1.50;;;11.30;99.90;;;;;;7406851;19;20338;-85
2022/05/19 03:11:49;;;;;;;1.70;1.60;;;11.30;99.90;;;;;;7406138;19;20309;-83
2022/05/19 03:14:15;;;;;;;1.50;1.40;;;11.30;99.90;;;;;;7408374;19;20414;-86
2022/05/19 03:16:41;;;;;;;2.55;1.83;;;11.30;99.90;;;;;;7405799;19;20412;-86
2022/05/19 03:19:07;;;;;;;1.50;1.40;;;11.30;99.90;;;;;;7409795;19;20376;-82
2022/05/19 03:21:32;;;;;;;1.80;1.40;;;11.20;99.90;;;;;;7408491;19;20364;-83
2022/05/19 03:23:58;;;;;;;1.67;1.57;;;11.20;99.90;;;;;;7409007;19;20308;-81
2022/05/19 03:26:23;;;;;;;1.70;1.60;;;11.20;99.90;;;;;;7407842;19;20312;-84
2022/05/19 03:28:55;;;;;;;1.48;1.38;;;11.20;99.90;;;;;;7409782;19;20320;-85
2022/05/19 03:31:20;;;;;;;2.80;1.70;;;11.20;99.90;;;;;;7409995;19;20365;-83
2022/05/19 03:33:46;;;;;;;1.40;1.30;;;11.20;99.90;;;;;;7413799;19;20364;-87
2022/05/19 03:36:12;;;;;;;1.70;1.60;;;11.20;99.90;;;;;;7407355;19;20392;-84
2022/05/19 03:38:38;;;;;;;1.50;1.40;;;11.20;99.90;;;;;;7410518;19;20727;-84
2022/05/19 03:41:03;;;;;;;1.67;1.57;;;11.20;99.90;;;;;;7413865;19;20309;-86
2022/05/19 03:43:29;;;;;;;1.65;1.55;;;11.20;99.90;;;;;;7411163;19;20607;-87
2022/05/19 03:45:55;;;;;;;2.75;1.50;;;11.20;99.90;;;;;;7411727;19;21066;-82
2022/05/19 03:48:22;;;;;;;1.83;1.73;;;11.20;99.90;;;;;;7407701;19;20912;-83
2022/05/19 03:50:48;;;;;;;3.23;1.53;;;11.20;99.90;;;;;;7412386;19;20372;-86
2022/05/19 03:53:14;;;;;;;1.65;1.55;;;11.20;99.90;;;;;;7412178;19;20333;-82
2022/05/19 03:55:39;;;;;;;1.70;1.60;;;11.20;99.90;;;;;;7410990;19;20311;-84
2022/05/19 03:58:05;;;;;;;1.63;1.53;;;11.30;99.90;;;;;;7412003;19;20340;-82
2022/05/19 04:00:32;;;;;;;1.67;1.58;;;11.40;99.90;;;;;;7414864;19;20340;-87
2022/05/19 04:02:58;;;;;;;1.80;1.60;;;11.40;99.90;;;;;;7397053;19;20339;-86
2022/05/19 04:05:25;;;;;;;1.85;1.75;;;11.40;99.90;;;;;;7416754;19;20357;-88
2022/05/19 04:07:50;;;;;;;1.48;1.38;;;11.40;99.90;;;;;;7415875;19;20325;-85
2022/05/19 04:10:17;;;;;;;1.70;1.60;;;11.50;99.90;;;;;;7417778;19;20296;-88
2022/05/19 04:12:43;;;;;;;4.70;1.55;;;11.50;99.90;;;;;;7419645;19;20336;-86
2022/05/19 04:15:09;;;;;;;1.75;1.65;;;11.60;99.90;;;;;;7417692;19;20313;-85
2022/05/19 04:17:35;;;;;;;1.63;1.52;;;11.70;99.90;;;;;;7412167;19;20369;-88
2022/05/19 04:20:03;;;;;;;1.70;1.60;;;11.80;99.90;;;;;;7416196;19;20311;-84
2022/05/19 04:22:28;;;;;;;1.60;1.50;;;11.80;99.90;;;;;;7418297;19;20320;-87
2022/05/19 04:24:54;;;;;;;1.53;1.43;;;11.90;99.90;;;;;;7417961;19;20341;-88
2022/05/19 04:27:20;;;;;;;1.58;1.48;;;12.00;99.90;;;;;;7413846;19;20305;-85
2022/05/19 04:29:48;;;;;;;1.70;1.60;;;12.10;99.90;;;;;;7418575;19;20357;-90
2022/05/19 04:32:16;;;;;;;1.80;1.60;;;12.20;99.90;;;;;;7419382;19;20372;-85
2022/05/19 04:34:42;;;;;;;1.75;1.65;;;12.30;99.90;;;;;;7415918;19;20343;-89
2022/05/19 04:37:09;;;;;;;1.60;1.50;;;12.50;99.90;;;;;;7417424;19;20349;-88
2022/05/19 04:39:34;;;;;;;1.70;1.60;;;12.60;99.90;;;;;;7418631;19;20352;-87
2022/05/19 04:42:07;;;;;;;1.60;1.50;;;12.70;99.90;;;;;;7420016;19;20308;-89
2022/05/19 04:44:33;;;;;;;1.60;1.50;;;12.80;99.90;;;;;;7419540;19;20356;-87
2022/05/19 04:46:59;;;;;;;1.90;1.80;;;13.00;99.90;;;;;;7415512;19;20309;-87
2022/05/19 04:49:25;;;;;;;2.57;1.83;;;13.10;99.90;;;;;;7415498;19;20352;-89
2022/05/19 04:51:50;;;;;;;2.10;1.65;;;13.30;99.90;;;;;;7410811;19;20316;-84
2022/05/19 04:54:16;;;;;;;1.67;1.57;;;13.40;99.90;;;;;;7384491;19;20328;-90
2022/05/19 04:56:42;;;;;;;2.13;1.92;;;13.60;99.90;;;;;;7401944;19;20297;-81
2022/05/19 04:59:14;;;;;;;2.10;1.60;;;13.70;99.90;;;;;;7395222;19;20331;-80
2022/05/19 05:01:45;;;;;;;2.65;1.63;;;13.90;99.90;;;;;;7397092;19;20377;-84
2022/05/19 05:04:11;;;;;;;1.70;1.60;;;14.00;99.90;;;;;;7401599;19;20749;-85
2022/05/19 05:06:36;;;;;;;2.90;1.80;;;14.20;99.90;;;;;;7407037;19;20312;-81
2022/05/19 05:09:02;;;;;;;1.50;1.40;;;14.30;99.90;;;;;;7397855;19;20321;-86
2022/05/19 05:11:28;;;;;;;1.70;1.60;;;14.50;99.90;;;;;;7407848;19;20351;-89
2022/05/19 05:13:53;;;;;;;2.72;1.60;;;14.70;99.90;;;;;;7412060;19;20360;-85
2022/05/19 05:16:19;;;;;;;1.73;1.63;;;14.90;99.90;;;;;;7399675;19;20336;-84
2022/05/19 05:18:44;;;;;;;2.40;1.80;;;15.00;99.90;;;;;;7391478;19;20352;-78
2022/05/19 05:21:13;;;;;;;2.08;1.92;;;15.10;99.90;;;;;;7384605;19;20352;-85
2022/05/19 05:23:39;;;;;;;2.30;1.80;;;15.30;99.90;;;;;;7382439;19;20368;-81
2022/05/19 05:26:06;;;;;;;3.00;1.60;;;15.40;99.90;;;;;;7375400;19;20365;-81
2022/05/19 05:28:32;;;;;;;3.60;1.95;;;15.50;99.90;;;;;;7379474;19;20708;-80
2022/05/19 05:30:58;;;;;;;2.85;2.55;;;15.60;99.90;;;;;;7379459;19;20309;-80
2022/05/19 05:33:23;;;;;;;2.67;1.83;;;15.60;99.90;;;;;;7382597;19;20316;-81
2022/05/19 05:35:49;;;;;;;3.13;1.90;;;15.60;99.90;;;;;;7378550;19;20881;-85
2022/05/19 05:38:14;;;;;;;2.20;2.00;;;15.70;99.90;;;;;;7378619;19;20352;-84
2022/05/19 05:40:40;;;;;;;2.40;2.00;;;15.80;99.90;;;;;;7391598;19;20840;-82
2022/05/19 05:43:07;;;;;;;3.20;1.80;;;15.90;99.90;;;;;;7389735;19;20722;-83
2022/05/19 05:45:33;;;;;;;1.55;1.45;;;16.00;99.90;;;;;;7382784;19;20333;-80
2022/05/19 05:47:58;;;;;;;2.67;1.95;;;16.20;99.90;;;;;;7385929;19;20320;-81
2022/05/19 05:50:24;;;;;;;2.20;2.00;;;16.40;99.90;;;;;;7387204;19;20317;-82
2022/05/19 05:52:50;;;;;;;5.15;2.10;;;16.50;99.90;;;;;;7387914;19;21140;-84
2022/05/19 05:55:15;;;;;;;2.33;2.13;;;16.60;99.90;;;;;;7388677;19;20405;-78
2022/05/19 05:57:41;;;;;;;2.50;1.90;;;16.70;99.90;;;;;;7387438;19;20694;-80
2022/05/19 06:00:08;;;;;;;2.45;1.70;;;16.80;99.90;;;;;;7392787;19;20800;-82
2022/05/19 06:02:37;;;;;;;2.50;1.70;;;16.90;99.90;;;;;;7391559;19;20340;-79
2022/05/19 06:05:03;;;;;;;1.70;1.60;;;17.00;99.90;;;;;;7399456;19;20353;-85
2022/05/19 06:07:29;;;;;;;2.33;1.90;;;17.20;99.90;;;;;;7405128;19;20356;-83
2022/05/19 06:09:56;;;;;;;1.90;1.80;;;17.40;99.90;;;;;;7403130;19;20341;-83
2022/05/19 06:12:22;;;;;;;2.05;1.88;;;17.60;99.90;;;;;;7409523;19;20304;-83
2022/05/19 06:14:50;;;;;;;2.83;1.85;;;17.80;99.90;;;;;;7404731;19;20379;-82
2022/05/19 06:17:16;;;;;;;2.60;1.73;;;18.00;99.90;;;;;;7398975;19;20410;-83
2022/05/19 06:19:41;;;;;;;2.20;2.00;;;18.20;99.90;;;;;;7404700;19;20363;-83
2022/05/19 06:22:07;;;;;;;2.27;1.97;;;18.40;99.90;;;;;;7399614;19;20313;-82
2022/05/19 06:24:33;;;;;;;2.17;1.80;;;18.50;99.90;;;;;;7403112;19;21293;-85
2022/05/19 06:26:59;;;;;;;1.97;1.87;;;18.60;99.90;;;;;;7400383;19;20332;-85
2022/05/19 06:29:24;;;;;;;1.83;1.73;;;18.80;99.90;;;;;;7401103;19;20328;-86
2022/05/19 06:31:50;;;;;;;2.07;1.87;;;18.80;99.90;;;;;;7401499;19;20329;-82
2022/05/19 06:34:16;;;;;;;2.17;1.83;;;18.90;99.90;;;;;;7404492;19;20332;-85
2022/05/19 06:36:42;;;;;;;2.03;1.90;;;19.10;99.90;;;;;;7400891;19;20356;-86
2022/05/19 06:39:07;;;;;;;1.80;1.70;;;19.30;99.90;;;;;;7402259;19;20840;-88
2022/05/19 06:44:17;;;;;;;2.08;1.88;;;19.70;99.90;;;;;;7304018;19;2004354;-84
2022/05/19 06:46:45;;;;;;;3.80;1.90;;;20.00;99.90;;;;;;7400454;19;20748;-82
2022/05/19 06:49:10;;;;;;;1.95;1.60;;;19.90;99.90;;;;;;7403953;19;20325;-82
2022/05/19 06:51:36;;;;;;;3.70;1.80;;;20.10;99.90;;;;;;7402751;19;20317;-82
2022/05/19 06:54:02;;;;;;;2.50;1.90;;;20.20;99.90;;;;;;7401921;19;20317;-84
2022/05/19 06:56:27;;;;;;;2.50;1.73;;;20.30;99.90;;;;;;7395446;19;20313;-83
2022/05/19 06:58:53;;;;;;;1.90;1.80;;;20.40;99.90;;;;;;7399008;19;21226;-83
2022/05/19 07:01:19;;;;;;;2.60;1.90;;;20.50;99.90;;;;;;7401988;19;20734;-83
2022/05/19 07:03:44;;;;;;;2.20;1.90;;;20.70;99.90;;;;;;7404650;19;20353;-87
2022/05/19 07:06:10;;;;;;;2.60;1.80;;;20.70;99.90;;;;;;7399798;19;20679;-84
2022/05/19 07:08:38;;;;;;;3.10;1.70;;;20.90;99.90;;;;;;7402015;19;20396;-84
2022/05/19 07:11:04;;;;;;;3.17;2.17;;;21.10;99.90;;;;;;7404774;19;20316;-87
2022/05/19 07:13:31;;;;;;;2.27;2.00;;;21.20;99.90;;;;;;7406806;19;20368;-86
2022/05/19 07:15:56;;;;;;;2.50;1.88;;;21.30;99.90;;;;;;7380210;19;20284;-84
2022/05/19 07:18:22;;;;;;;2.53;1.80;;;21.50;99.90;;;;;;7402806;19;20323;-84
2022/05/19 07:20:48;;;;;;;2.17;1.87;;;21.60;99.90;;;;;;7406778;19;20352;-88
2022/05/19 07:23:16;;;;;;;1.73;1.63;;;21.70;99.90;;;;;;7406952;19;20344;-89
2022/05/19 07:25:43;;;;;;;1.90;1.80;;;21.90;99.90;;;;;;7404292;19;20332;-84
2022/05/19 07:28:09;;;;;;;2.28;2.00;;;22.10;99.90;;;;;;7406029;19;20340;-85
2022/05/19 07:30:34;;;;;;;2.10;1.90;;;22.10;99.90;;;;;;7406475;19;20328;-87
2022/05/19 07:33:00;;;;;;;2.90;1.80;;;22.20;99.90;;;;;;7411636;19;20332;-84
2022/05/19 07:35:26;;;;;;;2.40;1.90;;;22.30;99.00;;;;;;7403010;19;20413;-86
2022/05/19 07:37:51;;;;;;;1.80;1.70;;;22.50;99.90;;;;;;7411107;19;20353;-86
2022/05/19 07:40:17;;;;;;;4.07;1.87;;;22.70;99.80;;;;;;7409003;19;20313;-86
2022/05/19 07:42:43;;;;;;;2.47;1.83;;;23.00;99.00;;;;;;7408524;19;20336;-88
2022/05/19 07:45:09;;;;;;;2.03;1.83;;;23.10;98.10;;;;;;7406254;19;20371;-87
2022/05/19 07:47:34;;;;;;;1.75;1.65;;;23.10;96.70;;;;;;7402337;19;20371;-85
2022/05/19 07:50:00;;;;;;;3.10;1.80;;;23.30;98.20;;;;;;7407223;19;20321;-88
2022/05/19 07:52:27;;;;;;;1.60;1.50;;;23.40;96.40;;;;;;7408596;19;20392;-89
2022/05/19 07:54:55;;;;;;;2.07;1.67;;;23.60;97.40;;;;;;7404254;19;20337;-88
2022/05/19 07:57:22;;;;;;;2.53;1.60;;;23.70;96.60;;;;;;7406479;19;20367;-88
2022/05/19 07:59:47;;;;;;;2.17;1.60;;;23.80;95.10;;;;;;7404555;19;20340;-89
2022/05/19 08:02:13;;;;;;;3.60;1.70;;;23.80;94.60;;;;;;7409082;19;20387;-86
2022/05/19 08:04:39;;;;;;;1.87;1.67;;;23.80;93.60;;;;;;7410171;19;20356;-87
2022/05/19 08:07:04;;;;;;;1.70;1.60;;;23.70;92.30;;;;;;7402671;19;20352;-87
2022/05/19 08:15:34;;;;;;;1.88;1.52;;;24.20;92.70;;;;;;7409937;19;20337;-86
2022/05/19 08:17:52;;;;;;;4.00;1.60;;;24.50;90.60;;;;;;7302558;19;2004294;-89
2022/05/19 08:20:18;;;;;;;1.40;1.30;;;24.60;91.60;;;;;;7407231;19;20439;-88
2022/05/19 08:22:44;;;;;;;1.60;1.37;;;24.80;90.20;;;;;;7405562;19;20364;-89
2022/05/19 08:25:09;;;;;;;2.10;1.50;;;25.00;88.90;;;;;;7408102;19;20348;-87
2022/05/19 08:27:35;;;;;;;2.67;1.63;;;25.10;89.00;;;;;;7408330;19;21022;-89
2022/05/19 08:30:01;;;;;;;1.60;1.50;;;25.30;87.50;;;;;;7408528;19;20376;-91
2022/05/19 08:32:26;;;;;;;1.60;1.50;;;25.20;85.50;;;;;;7409801;19;20316;-86
2022/05/19 08:34:52;;;;;;;1.70;1.60;;;25.10;85.80;;;;;;7409035;19;20351;-89
2022/05/19 08:37:19;;;;;;;1.40;1.30;;;25.40;82.60;;;;;;7405748;19;20341;-85
2022/05/19 08:39:45;;;;;;;1.60;1.50;;;25.40;81.20;;;;;;7413016;19;20337;-89
2022/05/19 08:42:10;;;;;;;1.53;1.43;;;25.60;83.70;;;;;;7413796;19;20355;-87
2022/05/19 08:44:48;;;;;;;1.42;1.33;;;25.90;79.70;;;;;;7412654;19;20364;-90
2022/05/19 08:47:14;;;;;;;1.40;1.30;;;26.10;73.90;;;;;;7308898;19;2004317;-87
2022/05/19 08:49:47;;;;;;;2.25;1.52;;;26.20;78.40;;;;;;7413301;19;20328;-85
2022/05/19 08:52:17;;;;;;;1.70;1.40;;;26.40;79.70;;;;;;7412277;19;20333;-90
2022/05/19 08:54:45;;;;;;;1.45;1.35;;;26.60;78.70;;;;;;7412145;19;20360;-86
2022/05/19 08:57:16;;;;;;;1.40;1.30;;;26.70;78.00;;;;;;7412480;19;20417;-84
2022/05/19 09:00:17;;;;;;;3.10;1.50;;;26.80;75.20;;;;;;7414191;19;20316;-85
2022/05/19 09:02:51;;;;;;;1.80;1.50;;;26.90;74.20;;;;;;7208266;19;2004503;-86
2022/05/19 09:05:27;;;;;;;1.38;1.27;;;27.20;73.80;;;;;;7394010;19;20344;-85
2022/05/19 09:08:16;;;;;;;3.72;1.50;;;27.10;72.90;;;;;;7413609;19;20312;-85
2022/05/19 09:11:04;;;;;;;2.37;1.57;;;26.90;71.10;;;;;;7416239;19;20377;-84
2022/05/19 09:13:30;;;;;;;1.58;1.42;;;26.80;69.90;;;;;;7312660;19;2004289;-83
2022/05/19 09:15:59;;;;;;;1.58;1.48;;;27.10;70.60;;;;;;7424931;19;20308;-88
2022/05/19 09:18:32;;;;;;;1.50;1.40;;;27.00;68.20;;;;;;7405156;19;20349;-84
2022/05/19 09:21:21;;;;;;;5.43;1.58;;;27.20;69.70;;;;;;7386607;19;20358;-83
2022/05/19 09:23:58;;;;;;;2.38;1.35;;;27.50;69.40;;;;;;7309178;19;20313;-72
2022/05/19 09:26:31;;;;;;;2.67;1.40;;;27.80;67.10;;;;;;7379554;19;20702;-74
2022/05/19 09:28:57;;;;;;;1.60;1.38;;;27.70;66.70;;;;;;7382504;19;20415;-73
2022/05/19 09:31:56;;;;;;;1.48;1.38;;;27.90;68.60;;;;;;7377155;19;20328;-73
2022/05/19 09:34:27;;;;;;;1.50;1.40;;;28.40;68.40;;;;;;7377006;19;20319;-73
2022/05/19 09:37:06;;;;;;;1.73;1.50;;;28.90;68.40;;;;;;7380865;19;20894;-73
2022/05/19 09:39:35;;;;;;;2.60;1.45;;;28.80;63.20;;;;;;7382288;19;20355;-73
2022/05/19 09:42:05;;;;;;;1.50;1.40;;;29.00;61.90;;;;;;7373423;19;20345;-73
2022/05/19 09:44:34;;;;;;;1.60;1.50;;;28.70;59.90;;;;;;7373821;19;20356;-74
2022/05/19 09:47:18;;;;;;;1.42;1.33;;;28.50;59.10;;;;;;7378725;19;20400;-73
2022/05/19 09:49:53;;;;;;;3.90;1.60;;;28.60;62.20;;;;;;7277725;19;2012888;-74
2022/05/19 09:52:23;;;;;;;1.42;1.33;;;28.80;63.10;;;;;;7377461;19;20321;-74
2022/05/19 09:54:53;;;;;;;1.67;1.57;;;29.00;61.30;;;;;;7377379;19;20332;-73
2022/05/19 09:57:25;;;;;;;2.15;1.48;;;29.20;58.10;;;;;;7378594;19;20352;-74
2022/05/19 09:59:51;;;;;;;1.60;1.40;;;29.40;61.00;;;;;;7381617;19;20341;-74
2022/05/19 10:02:39;;;;;;;1.80;1.70;;;29.50;60.00;;;;;;7372408;19;20344;-74
2022/05/19 10:05:22;;;;;;;1.42;1.40;;;29.40;55.90;;;;;;7270064;19;2004667;-74
2022/05/19 10:07:49;;;;;;;1.30;1.20;;;29.60;58.20;;;;;;7376756;19;21300;-74
2022/05/19 10:10:24;;;;;;;1.97;1.33;;;29.90;58.40;;;;;;7376073;19;20323;-74
2022/05/19 10:12:50;;;;;;;1.77;1.40;;;30.10;58.20;;;;;;7375262;19;20321;-74
2022/05/19 10:15:18;;;;;;;2.30;1.65;;;30.50;57.40;;;;;;7374024;19;20379;-74
2022/05/19 10:17:56;;;;;;;1.80;1.50;;;30.20;56.50;;;;;;7377839;19;20329;-74
2022/05/19 10:20:29;;;;;;;1.47;1.37;;;30.60;58.00;;;;;;7380995;19;20325;-73
2022/05/19 10:23:15;;;;;;;1.40;1.30;;;30.70;53.60;;;;;;7381305;19;20872;-74
2022/05/19 10:26:07;;;;;;;2.25;1.60;;;30.90;56.90;;;;;;7372831;19;20362;-74
2022/05/19 10:31:57;;;;;;;1.48;1.38;;;30.80;54.50;;;;;;7174238;19;2005476;-73
2022/05/19 10:35:01;;;;;;;1.58;1.48;;;31.10;55.20;;;;;;7274518;19;2006335;-74
2022/05/19 10:37:28;;;;;;;3.30;1.60;;;31.10;53.90;;;;;;7278343;19;2017988;-73
2022/05/19 10:39:56;;;;;;;1.60;1.50;;;31.30;54.30;;;;;;7380315;19;20350;-74
2022/05/19 10:42:36;;;;;;;1.70;1.60;;;31.70;54.10;;;;;;7370356;19;20692;-74
2022/05/19 10:45:24;;;;;;;2.03;1.65;;;31.90;53.50;;;;;;7374617;19;20341;-75
2022/05/19 10:48:02;;;;;;;1.60;1.50;;;32.00;54.40;;;;;;7375327;19;20329;-74
2022/05/19 10:50:31;;;;;;;1.40;1.30;;;31.60;53.00;;;;;;7377050;19;20435;-74
2022/05/19 10:53:06;;;;;;;2.03;1.63;;;31.90;54.00;;;;;;7377411;19;20340;-74
2022/05/19 10:55:56;;;;;;;2.83;1.50;;;32.00;53.10;;;;;;7376067;19;20340;-74
2022/05/19 10:58:52;;;;;;;2.85;1.55;;;31.90;50.30;;;;;;7340798;19;20633;-75
2022/05/19 11:01:29;;;;;;;2.78;1.55;;;32.30;52.50;;;;;;7272435;19;2004226;-74
2022/05/19 11:04:09;;;;;;;1.70;1.50;;;32.70;47.70;;;;;;7375280;19;20336;-74
2022/05/19 11:06:58;;;;;;;2.08;1.50;;;32.90;49.20;;;;;;7375813;19;20340;-75
2022/05/19 11:09:45;;;;;;;1.50;1.40;;;33.10;49.70;;;;;;7278312;19;2004386;-74
2022/05/19 11:12:19;;;;;;;1.60;1.50;;;33.30;51.30;;;;;;7267494;19;2004332;-74
2022/05/19 11:15:09;;;;;;;1.50;1.40;;;33.50;50.40;;;;;;7375511;19;20372;-74
2022/05/19 11:18:06;;;;;;;1.60;1.50;;;33.70;49.50;;;;;;7274104;19;2004658;-75
2022/05/19 11:20:55;;;;;;;1.52;1.42;;;33.60;51.00;;;;;;7271610;19;2007630;-74
2022/05/19 11:23:27;;;;;;;1.23;1.23;;;33.70;50.80;;;;;;7373864;19;20875;-74
2022/05/19 11:26:23;;;;;;;3.53;1.45;;;33.30;50.00;;;;;;7376772;19;20324;-74
2022/05/19 11:29:10;;;;;;;1.48;1.38;;;33.10;48.70;;;;;;7378963;19;20324;-75
2022/05/19 11:32:13;;;;;;;1.40;1.30;;;33.10;48.00;;;;;;7272947;19;2004611;-73
2022/05/19 11:35:05;;;;;;;1.70;1.60;;;33.10;47.70;;;;;;7263440;19;2004389;-74
2022/05/19 11:37:52;;;;;;;1.60;1.50;;;32.90;48.20;;;;;;7269701;19;2004884;-75
2022/05/19 11:40:42;;;;;;;4.20;1.63;;;32.90;48.30;;;;;;7379016;19;21350;-74
2022/05/19 11:43:17;;;;;;;1.42;1.33;;;32.50;46.40;;;;;;7274627;19;2004304;-75
2022/05/19 11:46:03;;;;;;;1.45;1.35;;;32.70;50.10;;;;;;7374106;19;20400;-75
2022/05/19 11:57:56;;;;;;;2.42;1.55;;;33.10;46.30;;;;;;7275830;19;2004373;-74
2022/05/19 12:00:55;;;;;;;2.53;1.40;;;33.10;46.70;;;;;;7251626;19;2004526;-75
2022/05/19 12:04:05;;;;;;;1.38;1.27;;;33.50;47.00;;;;;;7271535;19;2004322;-74
2022/05/19 12:06:34;;;;;;;2.10;1.40;;;33.80;46.30;;;;;;7269043;19;2004623;-74
2022/05/19 12:09:07;;;;;;;1.50;1.40;;;33.70;45.50;;;;;;7377273;19;20321;-74
2022/05/19 12:11:45;;;;;;;9.00;2.00;;;33.60;45.30;;;;;;7372014;19;20345;-75
2022/05/19 12:14:11;;;;;;;1.70;1.40;;;33.50;43.70;;;;;;7375230;19;20352;-74
2022/05/19 12:16:58;;;;;;;2.10;1.50;;;33.90;45.70;;;;;;7376275;19;21293;-76
2022/05/19 12:19:35;;;;;;;1.30;1.20;;;33.70;44.80;;;;;;7274416;19;2004520;-76
2022/05/19 12:22:23;;;;;;;1.42;1.33;;;33.40;44.60;;;;;;7372832;19;20751;-75
2022/05/19 12:24:54;;;;;;;1.30;1.20;;;33.80;45.80;;;;;;7371656;19;20352;-74
2022/05/19 12:27:23;;;;;;;1.30;1.20;;;33.90;44.40;;;;;;7374907;19;20342;-75
2022/05/19 12:29:59;;;;;;;2.85;1.23;;;33.60;42.70;;;;;;7376822;19;20438;-75
2022/05/19 12:32:44;;;;;;;1.40;1.30;;;33.70;44.40;;;;;;7269615;19;2006435;-75
2022/05/19 12:35:10;;;;;;;1.63;1.40;;;33.90;45.10;;;;;;7270417;19;2004488;-74
2022/05/19 12:37:50;;;;;;;1.40;1.30;;;34.30;42.90;;;;;;7373057;19;21150;-74
2022/05/19 12:40:19;;;;;;;1.40;1.30;;;34.00;42.20;;;;;;7269342;19;2004468;-74
2022/05/19 12:42:45;;;;;;;1.10;1.10;;;33.80;43.50;;;;;;7372764;19;20911;-75
2022/05/19 12:45:19;;;;;;;1.40;1.30;;;33.80;44.30;;;;;;7368098;19;20704;-75
2022/05/19 12:47:59;;;;;;;1.30;1.20;;;33.60;42.70;;;;;;7373335;19;20410;-75
2022/05/19 12:50:51;;;;;;;4.82;1.35;;;33.80;45.20;;;;;;7367676;19;20412;-75
2022/05/19 12:53:23;;;;;;;1.75;1.40;;;34.00;41.30;;;;;;7371483;19;20328;-75
2022/05/19 12:55:56;;;;;;;1.48;1.38;;;34.00;42.90;;;;;;7370518;19;20851;-75
2022/05/19 12:58:34;;;;;;;2.42;1.30;;;34.00;40.70;;;;;;7374046;19;20325;-74
2022/05/19 13:01:20;;;;;;;3.85;1.58;;;33.80;42.50;;;;;;7369764;19;20316;-74
2022/05/19 13:03:58;;;;;;;1.40;1.30;;;33.90;41.70;;;;;;7372702;19;20332;-73
2022/05/19 13:06:24;;;;;;;1.37;1.27;;;34.20;41.00;;;;;;7367796;19;20332;-75
2022/05/19 13:08:54;;;;;;;1.37;1.20;;;34.60;40.40;;;;;;7374080;19;20332;-74
2022/05/19 13:11:23;;;;;;;1.33;1.23;;;34.90;43.70;;;;;;7369870;19;20348;-75
2022/05/19 13:13:56;;;;;;;1.60;1.50;;;35.10;42.70;;;;;;7371533;19;20320;-74
2022/05/19 13:16:25;;;;;;;1.50;1.40;;;35.30;42.10;;;;;;7372958;19;20345;-74
2022/05/19 13:19:00;;;;;;;3.28;1.40;;;34.90;41.80;;;;;;7374793;19;20324;-74
2022/05/19 13:21:55;;;;;;;1.60;1.35;;;34.50;41.90;;;;;;7366772;19;20408;-74
2022/05/19 13:24:20;;;;;;;1.40;1.30;;;35.00;41.60;;;;;;7266704;19;2004327;-74
2022/05/19 13:26:46;;;;;;;1.67;1.30;;;34.80;41.90;;;;;;7373335;19;20345;-73